• Join FlightAware (Why Join?)
  • Login
  • US Flag 
12:15AM EDT


 

Airport Tracker/Info


-or-


 

Live Flight TrackerFlight Track Log ✈ UPS1337 ✈ 03-Mar-2014 ✈ KPIE - KSDF

Flight Track Log - Related Links

Times and Time Zones

All times are in EST time to prevent confusion due to time zone crossing. See the UPS1337 flight status page for this flight to view local times or setup timezone preferences in your user account.

Time Position Orientation Groundspeed Altitude Reporting Facility
EST Latitude Longitude Course Direction KTS MPH feet Rate Location/Type
09:42PM 27.9000 -82.6833 164° South 157 181 900  Level Tampa TRACON
09:43PM 27.8500 -82.6667 164° South 217 250 3,000 2,820 Climbing Tampa TRACON
09:44PM 27.8000 -82.7167 222° Southwest 280 322 6,600 3,000 Climbing Tampa TRACON
09:46PM 27.9225 -82.7586 343° North 273 314 11,400 2,040 Climbing Jacksonville Center
09:47PM 28.0289 -82.7608 359° North 318 366 12,300 1,800 Climbing Jacksonville Center
09:48PM 28.1353 -82.7608 360° North 364 419 15,100 2,640 Climbing Jacksonville Center
09:49PM 28.2500 -82.7631 359° North 392 451 17,600 2,640 Climbing Jacksonville Center
09:50PM 28.3628 -82.7958 346° North 405 466 20,400 2,520 Climbing Jacksonville Center
09:51PM 28.4797 -82.8311 345° North 417 480 22,700 1,800 Climbing Jacksonville Center
09:52PM 28.6006 -82.8667 346° North 430 495 24,100 1,500 Climbing Jacksonville Center
09:53PM 28.7092 -82.8972 346° North 443 510 25,800 1,320 Climbing Jacksonville Center
09:59PM 29.4719 -83.1236 345° North 432 497 34,000 1,140 Climbing FlightAware ADS-B (KMCO)
10:00PM 29.5503 -83.1503 345° North 437 503 34,000  Level Jacksonville Center
10:01PM 29.6669 -83.1867 345° North 437 503 34,000  Level Jacksonville Center
10:02PM 29.7858 -83.2206 346° North 437 503 34,000  Level Jacksonville Center
10:03PM 29.9153 -83.2617 345° North 437 503 34,000  Level Jacksonville Center
10:09PM 30.6064 -83.4694 345° North 440 506 34,000  Level FlightAware ADS-B (KTLH)
10:10PM 30.6913 -83.4955 345° North 438 504 34,000  Level FlightAware ADS-B (KTLH)
10:12PM 30.9060 -83.5624 345° North 435 501 34,000  Level FlightAware ADS-B (KTLH)
10:13PM 31.1163 -83.6283 345° North 434 499 34,000  Level FlightAware ADS-B (KTLH)
10:14PM 31.1931 -83.6531 345° North 436 502 34,000  Level Atlanta Center
10:15PM 31.3058 -83.6889 345° North 444 511 34,000  Level Atlanta Center
10:16PM 31.4206 -83.7250 345° North 437 503 34,000  Level Atlanta Center
10:17PM 31.5417 -83.7661 344° North 427 491 34,000  Level Atlanta Center
10:18PM 31.6567 -83.8069 343° North 421 484 34,000  Level Atlanta Center
10:19PM 31.7611 -83.8289 350° North 421 484 34,000  Level Atlanta Center
10:20PM 31.8925 -83.8750 343° North 432 497 34,000  Level Atlanta Center
10:21PM 32.0053 -83.9114 345° North 432 497 34,000  Level Atlanta Center
10:22PM 32.1203 -83.9481 345° North 432 497 34,000  Level Atlanta Center
10:23PM 32.2331 -83.9825 346° North 427 491 34,000  Level Atlanta Center
10:24PM 32.3247 -84.0119 345° North 422 486 34,000  Level Atlanta Center
10:25PM 32.4478 -84.0536 344° North 417 480 34,000  Level Atlanta Center
10:26PM 32.5606 -84.0906 345° North 417 480 34,000  Level Atlanta Center
10:27PM 32.6733 -84.1253 345° North 417 480 34,000  Level Atlanta Center
10:28PM 32.7861 -84.1622 345° North 417 480 34,000  Level Atlanta Center
10:29PM 32.9111 -84.2047 344° North 422 486 34,000  Level Atlanta Center
10:30PM 33.0239 -84.2444 344° North 422 486 34,000  Level Atlanta Center
10:31PM 33.1344 -84.2794 345° North 422 486 34,000  Level Atlanta Center
10:32PM 33.2492 -84.3169 345° North 416 479 34,000  Level Atlanta Center
10:37PM 33.9335 -84.4428 355° North 594 684 34,000  Level FlightAware ADS-B (KDZJ)
10:38PM 34.0120 -84.4531 354° North 417 480 34,000  Level FlightAware ADS-B (KDZJ)
10:39PM 34.0892 -84.4631 354° North 404 465 34,000  Level FlightAware ADS-B (KDZJ)
10:39PM 34.1659 -84.4732 354° North 407 468 34,000  Level FlightAware ADS-B (KDZJ)
10:40PM 34.2403 -84.4831 354° North 405 466 34,000  Level FlightAware ADS-B (KDZJ)
10:41PM 34.3156 -84.4932 354° North 402 463 34,000  Level FlightAware ADS-B (KDZJ)
10:41PM 34.3913 -84.5032 354° North 403 464 34,000  Level FlightAware ADS-B (KDZJ)
10:42PM 34.4657 -84.5129 354° North 407 468 34,000  Level FlightAware ADS-B (KDZJ)
10:43PM 34.5410 -84.5231 354° North 403 464 34,000  Level FlightAware ADS-B (KDZJ)
10:43PM 34.6147 -84.5328 354° North 401 461 34,000  Level FlightAware ADS-B (KDZJ)
10:44PM 34.6896 -84.5429 354° North 402 463 34,000  Level FlightAware ADS-B (KDZJ)
10:45PM 34.7632 -84.5530 354° North 403 464 34,000  Level FlightAware ADS-B (KDZJ)
10:45PM 34.8380 -84.5629 354° North 404 465 34,000  Level FlightAware ADS-B (KDZJ)
10:46PM 34.9118 -84.5726 354° North 403 464 34,000  Level FlightAware ADS-B (KDZJ)
10:47PM 34.9878 -84.5829 354° North 403 464 34,000  Level FlightAware ADS-B (KDZJ)
10:47PM 35.0599 -84.5924 354° North 402 463 34,000  Level FlightAware ADS-B (KDZJ)
10:48PM 35.1345 -84.6025 354° North 402 463 34,000  Level FlightAware ADS-B (KDZJ)
10:49PM 35.2041 -84.6121 354° North 403 464 34,000  Level FlightAware ADS-B (KDZJ)
10:50PM 35.2674 -84.6207 354° North 403 464 34,000  Level FlightAware ADS-B (KMDQ)
10:51PM 35.3746 -84.6353 354° North 403 464 34,000  Level FlightAware ADS-B (KMDQ)
10:53PM 35.4591 -84.6466 354° North 401 461 34,000  Level FlightAware ADS-B (KMDQ)
10:54PM 35.4591 -84.6466 353° North 398 458 34,000 -120 Level FlightAware ADS-B (KMDQ)
10:57PM 35.9959 -84.7226 353° North 404 465 33,600 -720 Descending FlightAware ADS-B (KMDQ)
10:57PM 36.0682 -84.7331 353° North 405 466 31,900 -1,140 Descending FlightAware ADS-B (KMDQ)
11:00PM 36.3897 -84.7796 354° North 441 507 30,000 -720 Descending FlightAware ADS-B (KBRY)
11:01PM 36.5396 -84.7997 354° North 446 513 29,200 -840 Descending FlightAware ADS-B (KBRY)
11:02PM 36.6889 -84.8197 354° North 438 504 28,000 -840 Descending FlightAware ADS-B (KBRY)
11:03PM 36.7498 -84.8283 354° North 438 504 27,300 -1,140 Descending FlightAware ADS-B (KBRY)
11:05PM 36.9608 -84.8570 354° North 446 513 25,600 -1,920 Descending FlightAware ADS-B (KBRY)
11:05PM 37.0228 -84.8656 354° North 436 502 24,200 -3,000 Descending FlightAware ADS-B (KBRY)
11:06PM 37.1739 -84.8865 354° North 422 486 19,900 -2,940 Descending FlightAware ADS-B (KBRY)
11:08PM 37.3069 -84.9047 354° North 409 471 17,200 -2,580 Descending FlightAware ADS-B (KBRY)
11:09PM 37.4253 -84.9207 354° North 380 437 14,500 -1,860 Descending FlightAware ADS-B (KBRY)
11:12PM 37.7166 -85.0386 312° West 351 404 9,600 -1,260 Descending FlightAware ADS-B (KBRY)
11:13PM 37.7721 -85.1219 298° West 284 327 9,500 -900 Descending FlightAware ADS-B (KBRY)
11:14PM 37.8049 -85.2087 295° West 270 311 7,900 -1,680 Descending FlightAware ADS-B (KBRY)
11:15PM 37.8361 -85.2927 296° West 267 307 6,200 -1,740 Descending FlightAware ADS-B (KBRY)
11:16PM 37.8692 -85.3790 295° West 270 311 4,500 -1,560 Descending FlightAware ADS-B (KBRY)
11:17PM 37.9060 -85.4774 295° West 260 299 2,800 -900 Descending FlightAware ADS-B (KBRY)
11:18PM 37.9394 -85.5554 315° West 257 296 2,600 -120 Descending FlightAware ADS-B (KBRY)
11:19PM 37.9861 -85.6135 315° West 213 245 2,600  Level FlightAware ADS-B (KBRY)
11:20PM 38.0280 -85.6670 315° West 194 223 2,600 -240 Level FlightAware ADS-B (KBRY)
11:21PM 38.0710 -85.6915 345° North 162 186 2,200 -660 Descending FlightAware ADS-B (KBRY)
11:22PM 38.1142 -85.7063 347° North 123 142 1,200 -840 Descending FlightAware ADS-B (KBRY)
11:23PM 38.1378 -85.7144 345° North 121 139 700 -780 Descending FlightAware ADS-B (KBRY)
11:29PM 38.1667 -85.7333 208° Southwest  Level FlightAware Approximate
11:30PM 38.1741 -85.7365 208° Southwest  Level Estimated
11:31PM 38.1741 -85.7365 208° Southwest  Level Estimated